createdAt,value
2022-08-07T00:02:35.938Z,14.65
2022-08-07T00:04:34.689Z,14.62
2022-08-07T00:07:18.321Z,14.59
2022-08-07T00:10:25.455Z,14.56
2022-08-07T00:13:23.570Z,14.52
2022-08-07T00:16:07.539Z,14.48
2022-08-07T00:18:52.706Z,14.47
2022-08-07T00:21:56.079Z,14.45
2022-08-07T00:24:38.373Z,14.43
2022-08-07T00:27:22.987Z,14.45
2022-08-07T00:30:21.589Z,14.48
2022-08-07T00:33:10.057Z,14.52
2022-08-07T00:35:54.741Z,14.56
2022-08-07T00:38:39.270Z,14.57
2022-08-07T00:41:27.525Z,14.57
2022-08-07T00:44:11.289Z,14.54
2022-08-07T00:46:57.888Z,14.48
2022-08-07T00:50:21.326Z,14.39
2022-08-07T00:52:47.466Z,14.30
2022-08-07T00:56:00.603Z,14.24
2022-08-07T00:58:33.896Z,14.15
2022-08-07T01:01:18.178Z,14.05
2022-08-07T01:04:06.093Z,13.96
2022-08-07T01:06:50.155Z,13.87
2022-08-07T01:10:02.346Z,13.80
2022-08-07T01:12:37.084Z,13.73
2022-08-07T01:15:23.108Z,13.70
2022-08-07T01:18:28.549Z,13.69
2022-08-07T01:21:22.748Z,13.69
2022-08-07T01:24:12.225Z,13.69
2022-08-07T01:26:56.317Z,13.67
2022-08-07T01:29:42.652Z,13.61
2022-08-07T01:32:25.814Z,13.53
2022-08-07T01:35:11.434Z,13.46
2022-08-07T01:38:02.678Z,13.40
2022-08-07T01:40:47.680Z,13.36
2022-08-07T01:43:34.656Z,13.32
2022-08-07T01:46:22.332Z,13.28
2022-08-07T01:49:06.839Z,13.24
2022-08-07T01:52:03.779Z,13.23
2022-08-07T01:54:52.039Z,13.21
2022-08-07T01:58:05.833Z,13.20
2022-08-07T02:00:45.375Z,13.20
2022-08-07T02:03:42.712Z,13.20
2022-08-07T02:06:34.171Z,13.19
2022-08-07T02:09:51.994Z,13.18
2022-08-07T02:12:30.900Z,13.15
2022-08-07T02:15:15.353Z,13.12
2022-08-07T02:18:02.515Z,13.11
2022-08-07T02:20:48.797Z,13.09
2022-08-07T02:23:40.701Z,13.07
2022-08-07T02:26:33.093Z,13.05
2022-08-07T02:29:19.111Z,13.03
2022-08-07T02:32:10.789Z,13.01
2022-08-07T02:34:56.447Z,13.02
2022-08-07T02:37:43.891Z,13.03
2022-08-07T02:40:30.451Z,13.04
2022-08-07T02:43:18.005Z,13.07
2022-08-07T02:46:04.546Z,13.07
2022-08-07T02:48:55.195Z,13.08
2022-08-07T02:51:42.366Z,13.07
2022-08-07T02:54:34.378Z,13.01
2022-08-07T02:57:19.707Z,12.95
2022-08-07T03:00:10.921Z,12.90
2022-08-07T03:02:55.558Z,12.84
2022-08-07T03:05:40.625Z,12.83
2022-08-07T03:08:26.860Z,12.81
2022-08-07T03:11:13.712Z,12.77
2022-08-07T03:14:01.818Z,12.70
2022-08-07T03:16:45.915Z,12.65
2022-08-07T03:19:37.010Z,12.57
2022-08-07T03:22:30.375Z,12.52
2022-08-07T03:25:14.105Z,12.45
2022-08-07T03:28:09.396Z,12.39
2022-08-07T03:31:24.637Z,12.35
2022-08-07T03:34:18.506Z,12.35
2022-08-07T03:37:12.147Z,12.36
2022-08-07T03:40:13.433Z,12.37
2022-08-07T03:42:59.736Z,12.39
2022-08-07T03:45:47.585Z,12.39
2022-08-07T03:48:33.744Z,12.40
2022-08-07T03:51:47.016Z,12.37
2022-08-07T03:54:36.412Z,12.36
2022-08-07T03:58:35.081Z,12.35
2022-08-07T04:00:46.229Z,12.35
2022-08-07T04:03:49.549Z,12.33
2022-08-07T04:06:37.050Z,12.31
2022-08-07T04:09:38.036Z,12.29
2022-08-07T04:12:31.403Z,12.27
2022-08-07T04:15:16.192Z,12.27
2022-08-07T04:18:31.800Z,12.29
2022-08-07T04:21:07.291Z,12.30
2022-08-07T04:24:07.549Z,12.36
2022-08-07T04:26:51.524Z,12.46
2022-08-07T04:29:48.643Z,12.55
2022-08-07T04:32:38.585Z,12.65
2022-08-07T04:35:35.272Z,12.75
2022-08-07T04:38:20.148Z,12.82
2022-08-07T04:41:04.557Z,12.90
2022-08-07T04:44:12.138Z,13.01
2022-08-07T04:47:08.789Z,13.20
2022-08-07T04:50:10.992Z,13.38
2022-08-07T04:53:04.671Z,13.55
2022-08-07T04:58:24.429Z,13.72
2022-08-07T04:59:18.417Z,13.93
2022-08-07T05:02:16.885Z,14.16
2022-08-07T05:05:53.113Z,14.37
2022-08-07T05:08:59.146Z,14.69
2022-08-07T05:11:57.407Z,15.49
2022-08-07T05:14:51.887Z,16.34
2022-08-07T05:18:00.482Z,17.05
2022-08-07T05:20:46.264Z,17.43
2022-08-07T05:23:37.162Z,17.66
2022-08-07T05:26:24.699Z,17.88
2022-08-07T05:29:16.340Z,18.04
2022-08-07T05:32:00.255Z,18.29
2022-08-07T05:34:49.085Z,18.53
2022-08-07T05:37:40.861Z,18.79
2022-08-07T05:40:26.577Z,19.01
2022-08-07T05:43:11.535Z,19.21
2022-08-07T05:45:56.925Z,19.37
2022-08-07T05:48:59.012Z,19.54
2022-08-07T05:51:46.541Z,19.78
2022-08-07T05:54:53.513Z,19.96
2022-08-07T05:57:38.044Z,20.12
2022-08-07T06:00:27.250Z,20.27
2022-08-07T06:03:15.757Z,20.40
2022-08-07T06:06:00.833Z,20.58
2022-08-07T06:08:46.822Z,20.75
2022-08-07T06:11:30.424Z,20.83
2022-08-07T06:14:21.012Z,20.89
2022-08-07T06:17:11.844Z,20.95
2022-08-07T06:20:04.020Z,21.07
2022-08-07T06:23:02.178Z,21.20
2022-08-07T06:25:58.156Z,21.35
2022-08-07T06:28:53.041Z,21.47
2022-08-07T06:31:46.888Z,21.64
2022-08-07T06:34:35.020Z,21.77
2022-08-07T06:37:20.600Z,21.95
2022-08-07T06:40:17.506Z,22.14
2022-08-07T06:43:21.188Z,22.24
2022-08-07T06:46:12.627Z,22.31
2022-08-07T06:48:56.616Z,22.44
2022-08-07T06:51:50.100Z,22.62
2022-08-07T06:55:33.326Z,22.82
2022-08-07T06:57:47.700Z,23.05
2022-08-07T07:00:39.162Z,23.08
2022-08-07T07:03:39.627Z,23.08
2022-08-07T07:06:28.927Z,23.21
2022-08-07T07:09:24.053Z,23.42
2022-08-07T07:12:31.170Z,23.59
2022-08-07T07:15:24.173Z,23.79
2022-08-07T07:18:15.349Z,23.73
2022-08-07T07:21:27.271Z,23.70
2022-08-07T07:24:24.243Z,23.86
2022-08-07T07:27:09.602Z,24.01
2022-08-07T07:30:09.736Z,23.89
2022-08-07T07:32:57.645Z,23.84
2022-08-07T07:35:51.831Z,24.01
2022-08-07T07:38:46.191Z,24.16
2022-08-07T07:41:50.830Z,24.47
2022-08-07T07:44:38.110Z,24.84
2022-08-07T07:47:24.806Z,24.85
2022-08-07T07:50:36.253Z,24.89
2022-08-07T07:53:23.012Z,25.21
2022-08-07T07:56:09.079Z,25.35
2022-08-07T07:58:53.033Z,25.54
2022-08-07T08:02:03.465Z,25.80
2022-08-07T08:04:46.618Z,26.09
2022-08-07T08:07:42.344Z,26.34
2022-08-07T08:10:38.725Z,26.57
2022-08-07T08:13:24.564Z,26.75
2022-08-07T08:16:20.385Z,26.96
2022-08-07T08:20:15.830Z,27.21
2022-08-07T08:22:33.805Z,27.32
2022-08-07T08:25:42.343Z,27.09
2022-08-07T08:28:37.867Z,26.87
2022-08-07T08:31:30.246Z,27.00
2022-08-07T08:34:31.535Z,27.04
2022-08-07T08:38:01.579Z,26.87
2022-08-07T08:40:29.411Z,26.74
2022-08-07T08:43:17.685Z,26.81
2022-08-07T08:46:12.807Z,26.95
2022-08-07T08:49:05.114Z,27.06
2022-08-07T08:52:12.993Z,27.31
2022-08-07T08:55:07.726Z,27.64
2022-08-07T08:58:03.006Z,27.84
2022-08-07T09:00:52.755Z,27.71
2022-08-07T09:03:48.019Z,27.42
2022-08-07T09:06:48.207Z,27.44
2022-08-07T09:09:48.469Z,27.67
2022-08-07T09:12:54.069Z,28.04
2022-08-07T09:16:24.255Z,28.32
2022-08-07T09:19:53.387Z,28.59
2022-08-07T09:24:30.927Z,28.85
2022-08-07T09:25:54.259Z,28.54
2022-08-07T09:30:05.475Z,28.17
2022-08-07T09:31:54.688Z,27.77
2022-08-07T09:34:54.004Z,27.92
2022-08-07T09:37:48.268Z,28.25
2022-08-07T09:40:50.564Z,28.24
2022-08-07T09:44:05.705Z,28.40
2022-08-07T09:47:51.998Z,28.34
2022-08-07T09:50:26.450Z,28.18
2022-08-07T09:53:15.078Z,28.30
2022-08-07T09:56:19.793Z,28.55
2022-08-07T09:59:46.193Z,28.96
2022-08-07T10:03:08.219Z,29.28
2022-08-07T10:06:35.651Z,29.31
2022-08-07T10:09:42.747Z,29.14
2022-08-07T10:12:55.776Z,28.70
2022-08-07T10:15:49.729Z,27.95
2022-08-07T10:19:16.227Z,27.66
2022-08-07T10:22:15.889Z,28.03
2022-08-07T10:25:16.253Z,28.39
2022-08-07T10:28:30.700Z,28.92
2022-08-07T10:31:38.501Z,28.72
2022-08-07T10:34:40.641Z,27.96
2022-08-07T10:37:48.592Z,27.87
2022-08-07T10:40:50.161Z,27.93
2022-08-07T10:43:42.560Z,28.51
2022-08-07T10:46:29.529Z,29.53
2022-08-07T10:49:24.447Z,30.30
2022-08-07T10:52:13.962Z,31.11
2022-08-07T10:55:26.688Z,31.82
2022-08-07T10:58:33.122Z,32.63
2022-08-07T11:01:51.597Z,33.09
2022-08-07T11:05:10.761Z,33.35
2022-08-07T11:08:12.737Z,33.66
2022-08-07T11:11:05.908Z,33.59
2022-08-07T11:14:45.253Z,33.31
2022-08-07T11:17:07.384Z,33.03
2022-08-07T11:19:57.770Z,32.85
2022-08-07T11:22:49.198Z,33.13
2022-08-07T11:25:48.245Z,33.36
2022-08-07T11:28:41.042Z,33.15
2022-08-07T11:31:35.258Z,32.68
2022-08-07T11:34:24.452Z,32.07
2022-08-07T11:37:17.731Z,31.52
2022-08-07T11:40:23.351Z,31.51
2022-08-07T11:43:17.339Z,31.96
2022-08-07T11:46:33.701Z,32.53
2022-08-07T11:50:18.664Z,32.99
2022-08-07T11:52:55.704Z,32.94
2022-08-07T11:56:15.579Z,33.04
2022-08-07T12:00:08.196Z,32.00
2022-08-07T12:02:33.494Z,30.72
2022-08-07T12:05:28.909Z,30.38
2022-08-07T12:08:34.741Z,30.35
2022-08-07T12:11:22.587Z,30.18
2022-08-07T12:14:11.381Z,30.34
2022-08-07T12:17:01.172Z,30.48
2022-08-07T12:19:56.190Z,30.85
2022-08-07T12:22:56.210Z,31.14
2022-08-07T12:26:03.522Z,31.40
2022-08-07T12:29:03.613Z,31.73
2022-08-07T12:32:01.972Z,31.83
2022-08-07T12:34:55.801Z,32.00
2022-08-07T12:38:11.749Z,32.05
2022-08-07T12:40:48.774Z,32.05
2022-08-07T12:44:02.136Z,31.97
2022-08-07T12:47:00.700Z,31.72
2022-08-07T12:50:00.268Z,31.70
2022-08-07T12:52:56.644Z,31.76
2022-08-07T12:56:03.506Z,31.49
2022-08-07T12:58:57.297Z,30.95
2022-08-07T13:01:55.690Z,30.53
2022-08-07T13:05:14.658Z,30.13
2022-08-07T13:08:22.684Z,29.95
2022-08-07T13:11:24.640Z,29.95
2022-08-07T13:14:19.152Z,29.82
2022-08-07T13:17:13.318Z,29.57
2022-08-07T13:20:08.508Z,29.40
2022-08-07T13:22:59.715Z,29.30
2022-08-07T13:26:00.859Z,29.19
2022-08-07T13:28:52.452Z,29.17
2022-08-07T13:31:54.961Z,29.06
2022-08-07T13:34:50.825Z,28.96
2022-08-07T13:37:49.639Z,28.78
2022-08-07T13:40:57.392Z,28.71
2022-08-07T13:43:44.066Z,28.53
2022-08-07T13:46:41.896Z,28.12
2022-08-07T13:50:34.239Z,27.92
2022-08-07T13:52:44.035Z,27.85
2022-08-07T13:55:34.021Z,27.79
2022-08-07T13:58:39.143Z,27.43
2022-08-07T14:01:25.910Z,26.94
2022-08-07T14:04:10.687Z,26.80
2022-08-07T14:06:55.513Z,26.76
2022-08-07T14:10:02.489Z,26.60
2022-08-07T14:12:57.113Z,26.35
2022-08-07T14:15:42.525Z,26.27
2022-08-07T14:18:31.382Z,26.25
2022-08-07T14:22:41.152Z,26.15
2022-08-07T14:24:41.196Z,26.06
2022-08-07T14:28:11.843Z,25.91
2022-08-07T14:30:34.981Z,25.84
2022-08-07T14:33:22.432Z,25.72
2022-08-07T14:36:09.607Z,25.68
2022-08-07T14:39:01.738Z,25.63
2022-08-07T14:42:19.778Z,25.56
2022-08-07T14:44:59.537Z,25.27
2022-08-07T14:47:47.078Z,25.08
2022-08-07T14:50:30.869Z,25.07
2022-08-07T14:54:05.555Z,25.04
2022-08-07T15:00:05.128Z,24.69
2022-08-07T15:02:37.037Z,24.52
2022-08-07T15:05:25.188Z,24.41
2022-08-07T15:08:12.629Z,24.41
2022-08-07T15:10:59.623Z,24.40
2022-08-07T15:13:52.542Z,24.42
2022-08-07T15:16:39.332Z,24.40
2022-08-07T15:22:54.055Z,24.19
2022-08-07T15:25:40.339Z,24.09
2022-08-07T15:32:01.939Z,23.98
2022-08-07T15:34:50.647Z,23.91
2022-08-07T15:38:04.456Z,23.71
2022-08-07T15:41:00.518Z,23.52
2022-08-07T15:43:59.174Z,23.43
2022-08-07T15:46:52.039Z,23.31
2022-08-07T15:52:41.284Z,23.11
2022-08-07T15:55:25.159Z,23.05
2022-08-07T15:58:37.263Z,23.06
2022-08-07T16:01:24.761Z,23.04
2022-08-07T16:04:29.090Z,23.04
2022-08-07T16:08:28.459Z,23.01
2022-08-07T16:10:24.923Z,22.94
2022-08-07T16:13:57.781Z,22.89
2022-08-07T16:17:14.864Z,22.86
2022-08-07T16:20:33.929Z,22.81
2022-08-07T16:23:53.431Z,22.72
2022-08-07T16:26:59.537Z,22.58
2022-08-07T16:30:29.803Z,22.49
2022-08-07T16:34:02.403Z,22.42
2022-08-07T16:36:31.435Z,22.39
2022-08-07T16:39:40.470Z,22.38
2022-08-07T16:42:55.069Z,22.38
2022-08-07T16:46:47.167Z,22.35
2022-08-07T16:50:27.790Z,22.25
2022-08-07T16:54:02.532Z,22.16
2022-08-07T16:56:18.859Z,22.08
2022-08-07T16:59:17.306Z,22.04
2022-08-07T17:02:51.414Z,22.02
2022-08-07T17:06:28.176Z,22.00
2022-08-07T17:09:09.722Z,21.96
2022-08-07T17:12:04.892Z,21.91
2022-08-07T17:15:16.255Z,21.86
2022-08-07T17:18:14.246Z,21.81
2022-08-07T17:20:57.914Z,21.77
2022-08-07T17:23:51.386Z,21.72
2022-08-07T17:26:50.006Z,21.64
2022-08-07T17:30:15.974Z,21.59
2022-08-07T17:33:39.214Z,21.50
2022-08-07T17:36:26.500Z,21.42
2022-08-07T17:39:16.456Z,21.35
2022-08-07T17:42:06.549Z,21.30
2022-08-07T17:44:55.357Z,21.23
2022-08-07T17:47:53.952Z,21.14
2022-08-07T17:50:57.466Z,21.04
2022-08-07T17:54:01.419Z,20.95
2022-08-07T17:56:54.730Z,20.86
2022-08-07T17:59:44.130Z,20.77
2022-08-07T18:02:36.215Z,20.68
2022-08-07T18:06:01.015Z,20.62
2022-08-07T18:08:36.310Z,20.52
2022-08-07T18:12:07.731Z,20.43
2022-08-07T18:14:59.683Z,20.33
2022-08-07T18:18:46.657Z,20.25
2022-08-07T18:21:38.315Z,20.16
2022-08-07T18:24:33.585Z,20.07
2022-08-07T18:27:38.570Z,19.98
2022-08-07T18:30:36.756Z,19.89
2022-08-07T18:33:56.632Z,19.79
2022-08-07T18:36:53.878Z,19.68
2022-08-07T18:40:08.407Z,19.58
2022-08-07T18:43:00.507Z,19.48
2022-08-07T18:46:22.042Z,19.39
2022-08-07T18:50:05.244Z,19.30
2022-08-07T18:52:53.874Z,19.21
2022-08-07T18:55:55.867Z,19.10
2022-08-07T18:58:54.617Z,18.99
2022-08-07T19:02:17.200Z,18.89
2022-08-07T19:05:15.049Z,18.78
2022-08-07T19:08:05.996Z,18.67
2022-08-07T19:10:58.951Z,18.60
2022-08-07T19:14:08.005Z,18.52
2022-08-07T19:17:07.790Z,18.43
2022-08-07T19:20:03.587Z,18.35
2022-08-07T19:23:00.814Z,18.26
2022-08-07T19:26:24.982Z,18.21
2022-08-07T19:30:54.612Z,18.12
2022-08-07T19:32:18.640Z,18.01
2022-08-07T19:35:11.109Z,17.93
2022-08-07T19:37:58.507Z,17.83
2022-08-07T19:40:49.319Z,17.76
2022-08-07T19:43:43.535Z,17.67
2022-08-07T19:46:39.657Z,17.58
2022-08-07T19:49:57.209Z,17.48
2022-08-07T19:52:42.580Z,17.37
2022-08-07T19:55:56.408Z,17.28
2022-08-07T19:58:50.378Z,17.18
2022-08-07T20:01:52.622Z,17.08
2022-08-07T20:04:48.854Z,16.99
2022-08-07T20:07:47.609Z,16.92
2022-08-07T20:10:54.194Z,16.83
2022-08-07T20:13:45.939Z,16.76
2022-08-07T20:16:35.247Z,16.68
2022-08-07T20:19:23.263Z,16.62
2022-08-07T20:22:15.168Z,16.56
2022-08-07T20:25:06.119Z,16.52
2022-08-07T20:27:58.424Z,16.45
2022-08-07T20:30:46.874Z,16.40
2022-08-07T20:33:36.846Z,16.33
2022-08-07T20:36:21.769Z,16.26
2022-08-07T20:39:17.887Z,16.18
2022-08-07T20:42:12.329Z,16.10
2022-08-07T20:45:00.372Z,16.04
2022-08-07T20:47:56.330Z,15.99
2022-08-07T20:50:43.025Z,15.92
2022-08-07T20:54:02.833Z,15.86
2022-08-07T20:56:40.546Z,15.79
2022-08-07T21:00:06.868Z,15.75
2022-08-07T21:03:00.710Z,15.72
2022-08-07T21:05:54.819Z,15.69
2022-08-07T21:08:41.240Z,15.65
2022-08-07T21:11:29.052Z,15.61
2022-08-07T21:14:33.069Z,15.56
2022-08-07T21:18:02.189Z,15.52
2022-08-07T21:20:33.229Z,15.50
2022-08-07T21:23:27.804Z,15.50
2022-08-07T21:26:22.012Z,15.50
2022-08-07T21:29:15.655Z,15.46
2022-08-07T21:32:47.483Z,15.40
2022-08-07T21:35:15.158Z,15.34
2022-08-07T21:38:08.811Z,15.30
2022-08-07T21:41:01.921Z,15.29
2022-08-07T21:43:56.062Z,15.29
2022-08-07T21:46:46.944Z,15.28
2022-08-07T21:49:40.720Z,15.27
2022-08-07T21:52:57.079Z,15.25
2022-08-07T21:55:49.241Z,15.21
2022-08-07T21:58:45.870Z,15.15
2022-08-07T22:02:10.088Z,15.08
2022-08-07T22:04:52.727Z,15.02
2022-08-07T22:07:58.090Z,14.97
2022-08-07T22:10:45.795Z,14.91
2022-08-07T22:13:51.866Z,14.89
2022-08-07T22:16:46.885Z,14.87
2022-08-07T22:19:36.913Z,14.86
2022-08-07T22:22:28.949Z,14.81
2022-08-07T22:25:18.798Z,14.73
2022-08-07T22:28:31.173Z,14.64
2022-08-07T22:31:45.158Z,14.55
2022-08-07T22:34:39.886Z,14.46
2022-08-07T22:38:04.460Z,14.38
2022-08-07T22:40:54.500Z,14.32
2022-08-07T22:43:42.865Z,14.27
2022-08-07T22:47:03.563Z,14.25
2022-08-07T22:50:20.759Z,14.22
2022-08-07T22:54:08.867Z,14.19
2022-08-07T22:56:46.086Z,14.15
2022-08-07T22:59:50.025Z,14.12
2022-08-07T23:02:46.817Z,14.11
2022-08-07T23:06:08.454Z,14.11
2022-08-07T23:10:05.911Z,14.09
2022-08-07T23:12:37.190Z,14.07
2022-08-07T23:16:06.093Z,14.10
2022-08-07T23:19:11.160Z,14.15
2022-08-07T23:22:03.869Z,14.17
2022-08-07T23:24:58.639Z,14.19
2022-08-07T23:28:28.655Z,14.21
2022-08-07T23:32:49.594Z,14.22
2022-08-07T23:35:01.107Z,14.21
2022-08-07T23:38:42.428Z,14.15
2022-08-07T23:42:02.058Z,14.08
2022-08-07T23:45:15.106Z,13.99
2022-08-07T23:48:59.457Z,13.95
2022-08-07T23:52:59.976Z,13.95
2022-08-07T23:54:57.869Z,13.91
2022-08-07T23:57:43.800Z,13.82
